Time;durP1;ratioP1;P1;durP2;ratioP2;P2;SDS_P1;SDS_P2;PMS_P1;PMS_P2;Temp;Humidity;BMP_temperature;BMP_pressure;BME280_temperature;BME280_humidity;BME280_pressure;Samples;Min_cycle;Max_cycle;Signal;HPM_P1;HPM_P2
2022/04/17 00:01:45;;;;;;;15.60;1.95;;;;;;;;;;5072794;28;20040;-68
2022/04/17 00:04:49;;;;;;;3.83;1.60;;;;;;;;;;5072861;28;20048;-68
2022/04/17 00:07:53;;;;;;;4.88;1.60;;;;;;;;;;5072801;28;20388;-68
2022/04/17 00:10:57;;;;;;;4.72;1.60;;;;;;;;;;5072247;28;20044;-67
2022/04/17 00:14:01;;;;;;;10.73;1.63;;;;;;;;;;5072006;28;20040;-67
2022/04/17 00:17:06;;;;;;;7.82;1.45;;;;;;;;;;5073082;28;20532;-67
2022/04/17 00:20:11;;;;;;;4.63;1.42;;;;;;;;;;5072993;28;20040;-67
2022/04/17 00:23:15;;;;;;;9.30;1.70;;;;;;;;;;5072761;28;20049;-67
2022/04/17 00:26:19;;;;;;;13.07;1.88;;;;;;;;;;5072299;28;20037;-68
2022/04/17 00:29:23;;;;;;;10.23;1.90;;;;;;;;;;5072586;28;20527;-68
2022/04/17 00:32:30;;;;;;;7.70;1.40;;;;;;;;;;5072793;28;20044;-68
2022/04/17 00:35:34;;;;;;;8.48;1.70;;;;;;;;;;5072445;28;20041;-68
2022/04/17 00:38:38;;;;;;;7.70;1.33;;;;;;;;;;5072721;28;20128;-68
2022/04/17 00:41:43;;;;;;;9.32;2.80;;;;;;;;;;5072320;28;20036;-69
2022/04/17 00:44:47;;;;;;;12.82;1.58;;;;;;;;;;5072378;28;20041;-69
2022/04/17 00:47:52;;;;;;;3.95;1.38;;;;;;;;;;5072463;28;20043;-69
2022/04/17 00:50:57;;;;;;;6.68;1.60;;;;;;;;;;5071542;28;20048;-68
2022/04/17 00:54:01;;;;;;;19.45;3.05;;;;;;;;;;5072304;28;20044;-68
2022/04/17 00:57:07;;;;;;;12.93;2.00;;;;;;;;;;5072096;28;20404;-67
2022/04/17 01:00:11;;;;;;;22.83;2.45;;;;;;;;;;5072743;28;20051;-67
2022/04/17 01:03:17;;;;;;;8.75;1.77;;;;;;;;;;5071759;28;20056;-67
2022/04/17 01:06:21;;;;;;;13.10;1.77;;;;;;;;;;5071708;28;20374;-69
2022/04/17 01:09:26;;;;;;;8.18;2.08;;;;;;;;;;5072175;28;20052;-67
2022/04/17 01:12:30;;;;;;;9.07;1.42;;;;;;;;;;5071860;28;20037;-68
2022/04/17 01:15:36;;;;;;;10.43;1.73;;;;;;;;;;5071383;28;20036;-68
2022/04/17 01:18:56;;;;;;;4.95;1.45;;;;;;;;;;5071740;28;20055;-68
2022/04/17 01:22:00;;;;;;;11.00;1.77;;;;;;;;;;5071546;28;20517;-68
2022/04/17 01:28:28;;;;;;;7.18;1.63;;;;;;;;;;5071596;28;20036;-67
2022/04/17 01:31:33;;;;;;;12.55;2.33;;;;;;;;;;5071651;28;20032;-67
2022/04/17 01:34:37;;;;;;;8.95;1.45;;;;;;;;;;5070583;28;20047;-67
2022/04/17 01:37:42;;;;;;;7.60;1.83;;;;;;;;;;5070574;28;20342;-68
2022/04/17 01:40:46;;;;;;;9.85;2.00;;;;;;;;;;5070595;28;20044;-67
2022/04/17 01:43:50;;;;;;;4.57;1.55;;;;;;;;;;5070895;28;20052;-68
2022/04/17 01:46:55;;;;;;;9.60;1.65;;;;;;;;;;5071112;28;20040;-68
2022/04/17 01:49:59;;;;;;;15.60;1.60;;;;;;;;;;5071269;28;20373;-68
2022/04/17 01:53:04;;;;;;;14.45;1.70;;;;;;;;;;5070176;28;20068;-66
2022/04/17 01:56:08;;;;;;;9.68;1.50;;;;;;;;;;5071150;28;20056;-68
2022/04/17 01:59:13;;;;;;;8.45;1.58;;;;;;;;;;5070906;28;20036;-67
2022/04/17 02:02:18;;;;;;;7.68;1.80;;;;;;;;;;5070516;28;20048;-67
2022/04/17 02:05:22;;;;;;;13.45;1.70;;;;;;;;;;5071102;28;20036;-67
2022/04/17 02:08:30;;;;;;;8.27;1.92;;;;;;;;;;5070659;28;20067;-67
2022/04/17 02:11:34;;;;;;;9.18;1.52;;;;;;;;;;5070089;28;20377;-67
2022/04/17 02:14:38;;;;;;;7.68;1.50;;;;;;;;;;5071106;28;20049;-67
2022/04/17 02:17:43;;;;;;;6.05;1.48;;;;;;;;;;5070005;28;20028;-68
2022/04/17 02:20:47;;;;;;;12.30;1.77;;;;;;;;;;5071025;28;20044;-67
2022/04/17 02:23:52;;;;;;;6.00;1.27;;;;;;;;;;5070515;28;20063;-66
2022/04/17 02:26:56;;;;;;;12.20;1.75;;;;;;;;;;5071534;28;20040;-66
2022/04/17 02:30:01;;;;;;;7.72;1.65;;;;;;;;;;5070972;28;20051;-67
2022/04/17 02:33:05;;;;;;;9.65;1.67;;;;;;;;;;5069806;28;20484;-66
2022/04/17 02:36:09;;;;;;;9.32;1.63;;;;;;;;;;5070875;28;20044;-67
2022/04/17 02:39:14;;;;;;;8.05;1.60;;;;;;;;;;5070850;28;20033;-67
2022/04/17 02:42:18;;;;;;;8.90;1.92;;;;;;;;;;5070698;28;20036;-68
2022/04/17 02:45:22;;;;;;;10.07;1.50;;;;;;;;;;5070756;28;20053;-68
2022/04/17 02:48:27;;;;;;;10.18;2.03;;;;;;;;;;5069937;28;20044;-67
2022/04/17 02:51:33;;;;;;;7.45;1.70;;;;;;;;;;5074330;28;20528;-67
2022/04/17 02:54:38;;;;;;;8.70;1.85;;;;;;;;;;5061674;28;20033;-68
2022/04/17 02:57:43;;;;;;;7.22;1.67;;;;;;;;;;5074426;28;20041;-68
2022/04/17 03:07:34;;;;;;;9.85;1.98;;;;;;;;;;5073973;28;20512;-68
2022/04/17 03:10:39;;;;;;;12.07;1.75;;;;;;;;;;5074382;28;20040;-68
2022/04/17 03:13:43;;;;;;;17.05;1.90;;;;;;;;;;5073392;28;20115;-67
2022/04/17 03:16:48;;;;;;;9.48;1.55;;;;;;;;;;5074250;28;20052;-68
2022/04/17 03:19:52;;;;;;;10.25;1.67;;;;;;;;;;5073363;28;20472;-68
2022/04/17 03:22:57;;;;;;;5.18;1.35;;;;;;;;;;5073950;28;20052;-68
2022/04/17 03:26:01;;;;;;;8.63;1.48;;;;;;;;;;5074013;28;20032;-68
2022/04/17 03:29:05;;;;;;;6.38;1.40;;;;;;;;;;5073759;28;20052;-68
2022/04/17 03:32:10;;;;;;;3.72;1.40;;;;;;;;;;5073142;28;20036;-68
2022/04/17 03:35:15;;;;;;;7.35;1.58;;;;;;;;;;5073820;28;20044;-67
2022/04/17 03:38:20;;;;;;;12.15;2.25;;;;;;;;;;5073821;28;20036;-67
2022/04/17 03:41:24;;;;;;;5.80;1.70;;;;;;;;;;5073845;28;20043;-67
2022/04/17 03:44:29;;;;;;;10.10;1.90;;;;;;;;;;5073616;28;20048;-67
2022/04/17 03:47:34;;;;;;;8.25;1.63;;;;;;;;;;5073684;28;20048;-68
2022/04/17 03:50:39;;;;;;;8.57;1.80;;;;;;;;;;5073659;28;20036;-67
2022/04/17 03:53:44;;;;;;;11.88;1.75;;;;;;;;;;5073494;28;20040;-67
2022/04/17 03:56:48;;;;;;;12.65;1.65;;;;;;;;;;5073515;28;20047;-68
2022/04/17 03:59:52;;;;;;;16.85;1.92;;;;;;;;;;5072621;28;20048;-67
2022/04/17 04:02:57;;;;;;;11.18;2.00;;;;;;;;;;5072379;28;20507;-68
2022/04/17 04:06:01;;;;;;;11.98;1.50;;;;;;;;;;5073463;28;20519;-68
2022/04/17 04:09:06;;;;;;;7.65;1.60;;;;;;;;;;5072935;28;20408;-68
2022/04/17 04:12:10;;;;;;;10.63;1.80;;;;;;;;;;5073101;28;20033;-68
2022/04/17 04:15:16;;;;;;;15.75;2.10;;;;;;;;;;5072960;28;20056;-68
2022/04/17 04:18:20;;;;;;;11.60;1.95;;;;;;;;;;5072075;28;20039;-67
2022/04/17 04:21:24;;;;;;;17.65;1.83;;;;;;;;;;5072959;28;20039;-67
2022/04/17 04:24:30;;;;;;;12.32;1.63;;;;;;;;;;5071990;28;20052;-69
2022/04/17 04:30:57;;;;;;;10.98;1.63;;;;;;;;;;5073050;28;20391;-68
2022/04/17 04:34:01;;;;;;;8.35;1.50;;;;;;;;;;5072299;28;20047;-68
2022/04/17 04:37:06;;;;;;;10.10;2.35;;;;;;;;;;5072807;28;20032;-67
2022/04/17 04:40:11;;;;;;;7.15;1.80;;;;;;;;;;5072730;28;20048;-68
2022/04/17 04:43:16;;;;;;;21.10;2.30;;;;;;;;;;5071280;28;20041;-68
2022/04/17 04:46:21;;;;;;;6.38;1.98;;;;;;;;;;5072556;28;20044;-67
2022/04/17 04:49:31;;;;;;;17.77;2.00;;;;;;;;;;5072602;28;20045;-68
2022/04/17 04:52:36;;;;;;;11.98;2.15;;;;;;;;;;5072389;28;20523;-68
2022/04/17 04:55:40;;;;;;;13.80;2.10;;;;;;;;;;5072270;28;20048;-67
2022/04/17 04:58:44;;;;;;;11.50;2.00;;;;;;;;;;5072138;28;20051;-68
2022/04/17 05:01:49;;;;;;;12.52;1.90;;;;;;;;;;5071878;28;20432;-67
2022/04/17 05:04:54;;;;;;;10.70;2.05;;;;;;;;;;5071868;28;20047;-68
2022/04/17 05:07:58;;;;;;;11.63;2.33;;;;;;;;;;5071435;28;20075;-64
2022/04/17 05:11:03;;;;;;;7.38;1.50;;;;;;;;;;5071685;28;20069;-64
2022/04/17 05:14:08;;;;;;;7.63;2.15;;;;;;;;;;5071916;28;20040;-64
2022/04/17 05:17:12;;;;;;;11.15;1.90;;;;;;;;;;5071704;28;20393;-63
2022/04/17 05:20:16;;;;;;;8.63;2.78;;;;;;;;;;5071692;28;20047;-64
2022/04/17 05:23:25;;;;;;;13.85;2.38;;;;;;;;;;5070805;28;20052;-63
2022/04/17 05:26:30;;;;;;;8.30;1.92;;;;;;;;;;5071384;28;20226;-64
2022/04/17 05:29:34;;;;;;;13.20;2.42;;;;;;;;;;5071722;28;20044;-62
2022/04/17 05:32:39;;;;;;;17.35;2.30;;;;;;;;;;5071230;28;20114;-62
2022/04/17 05:35:43;;;;;;;10.98;2.00;;;;;;;;;;5071364;28;20039;-63
2022/04/17 05:38:47;;;;;;;7.53;2.30;;;;;;;;;;5071718;28;20055;-63
2022/04/17 05:41:52;;;;;;;9.55;2.90;;;;;;;;;;5071318;28;20032;-64
2022/04/17 05:44:57;;;;;;;7.28;1.98;;;;;;;;;;5071281;28;20041;-62
2022/04/17 05:48:01;;;;;;;11.50;1.95;;;;;;;;;;5071420;28;20040;-63
2022/04/17 05:51:05;;;;;;;7.72;2.00;;;;;;;;;;5070673;28;20045;-63
2022/04/17 05:54:10;;;;;;;8.73;1.90;;;;;;;;;;5070839;28;20032;-63
2022/04/17 05:57:14;;;;;;;14.38;2.60;;;;;;;;;;5070431;28;20048;-63
2022/04/17 06:00:18;;;;;;;11.50;2.28;;;;;;;;;;5070919;28;20388;-64
2022/04/17 06:03:23;;;;;;;7.60;1.98;;;;;;;;;;5070770;28;20056;-63
2022/04/17 06:06:27;;;;;;;9.82;2.15;;;;;;;;;;5071005;28;20041;-64
2022/04/17 06:09:31;;;;;;;28.80;3.47;;;;;;;;;;5070108;28;20044;-63
2022/04/17 06:12:36;;;;;;;8.60;2.40;;;;;;;;;;5070027;28;20071;-64
2022/04/17 06:15:40;;;;;;;10.27;2.38;;;;;;;;;;5070821;28;20037;-64
2022/04/17 06:18:45;;;;;;;8.95;2.13;;;;;;;;;;5070537;28;20039;-64
2022/04/17 06:21:50;;;;;;;9.30;2.33;;;;;;;;;;5070967;28;20048;-63
2022/04/17 06:24:54;;;;;;;6.05;2.80;;;;;;;;;;5070432;28;20045;-64
2022/04/17 06:27:59;;;;;;;15.90;2.55;;;;;;;;;;5070649;28;20488;-64
2022/04/17 06:31:04;;;;;;;11.35;3.22;;;;;;;;;;5070989;28;20045;-65
2022/04/17 06:34:08;;;;;;;14.18;2.88;;;;;;;;;;5069939;28;20048;-64
2022/04/17 06:37:13;;;;;;;10.93;2.60;;;;;;;;;;5070535;28;20040;-64
2022/04/17 06:40:21;;;;;;;9.30;2.47;;;;;;;;;;5070671;28;20052;-64
2022/04/17 06:43:26;;;;;;;10.90;2.67;;;;;;;;;;5070275;28;20056;-64
2022/04/17 06:46:30;;;;;;;9.07;3.08;;;;;;;;;;5070619;28;20504;-64
2022/04/17 06:49:34;;;;;;;14.55;3.00;;;;;;;;;;5070642;28;20037;-64
2022/04/17 06:52:39;;;;;;;6.22;2.45;;;;;;;;;;5070328;28;20115;-63
2022/04/17 06:55:43;;;;;;;21.45;3.20;;;;;;;;;;5070531;28;20044;-65
2022/04/17 06:58:47;;;;;;;11.55;3.00;;;;;;;;;;5070645;28;20621;-63
2022/04/17 07:01:52;;;;;;;8.70;3.10;;;;;;;;;;5070306;28;20523;-64
2022/04/17 07:04:56;;;;;;;9.63;2.97;;;;;;;;;;5070380;28;20485;-63
2022/04/17 07:08:02;;;;;;;10.85;3.00;;;;;;;;;;5069886;28;20044;-62
2022/04/17 07:11:06;;;;;;;7.32;3.17;;;;;;;;;;5070332;28;20528;-64
2022/04/17 07:14:14;;;;;;;10.40;2.90;;;;;;;;;;5070539;28;20032;-63
2022/04/17 07:17:20;;;;;;;13.32;2.97;;;;;;;;;;5070278;28;20516;-64
2022/04/17 07:20:24;;;;;;;17.73;3.45;;;;;;;;;;5069429;28;20048;-65
2022/04/17 07:23:28;;;;;;;9.68;2.78;;;;;;;;;;5069953;28;20519;-65
2022/04/17 07:26:33;;;;;;;27.15;3.78;;;;;;;;;;5070288;28;20037;-65
2022/04/17 07:29:38;;;;;;;11.13;3.22;;;;;;;;;;5070428;28;20119;-63
2022/04/17 07:32:43;;;;;;;20.77;3.33;;;;;;;;;;5070069;28;20044;-63
2022/04/17 07:35:48;;;;;;;9.90;3.05;;;;;;;;;;5071392;28;20055;-63
2022/04/17 07:38:52;;;;;;;15.98;3.70;;;;;;;;;;5073874;28;20044;-64
2022/04/17 07:41:56;;;;;;;8.20;2.92;;;;;;;;;;5073589;28;20388;-64
2022/04/17 07:45:01;;;;;;;14.85;3.60;;;;;;;;;;5073662;28;20044;-64
2022/04/17 07:48:05;;;;;;;9.85;3.10;;;;;;;;;;5073622;28;20044;-63
2022/04/17 07:51:10;;;;;;;15.15;3.58;;;;;;;;;;5073181;28;20028;-64
2022/04/17 07:54:14;;;;;;;10.60;3.67;;;;;;;;;;5073321;28;20048;-64
2022/04/17 07:57:18;;;;;;;9.10;2.83;;;;;;;;;;5073352;28;20039;-64
2022/04/17 08:00:24;;;;;;;11.02;3.60;;;;;;;;;;5073135;28;20041;-64
2022/04/17 08:06:38;;;;;;;8.13;2.88;;;;;;;;;;5073099;28;20056;-64
2022/04/17 08:09:42;;;;;;;17.25;3.78;;;;;;;;;;5073250;28;20044;-64
2022/04/17 08:12:47;;;;;;;15.27;3.42;;;;;;;;;;5072334;28;20048;-65
2022/04/17 08:15:51;;;;;;;7.85;3.13;;;;;;;;;;5072961;28;20048;-63
2022/04/17 08:18:55;;;;;;;12.80;3.50;;;;;;;;;;5073270;28;20036;-63
2022/04/17 08:22:00;;;;;;;14.45;3.50;;;;;;;;;;5072727;28;20043;-64
2022/04/17 08:25:04;;;;;;;17.48;4.10;;;;;;;;;;5072890;28;20067;-65
2022/04/17 08:28:09;;;;;;;15.23;4.55;;;;;;;;;;5072612;28;20060;-64
2022/04/17 08:31:13;;;;;;;12.93;2.95;;;;;;;;;;5073068;28;20416;-64
2022/04/17 08:34:17;;;;;;;11.13;5.07;;;;;;;;;;5072349;28;20040;-64
2022/04/17 08:37:21;;;;;;;14.02;4.30;;;;;;;;;;5072467;28;20047;-63
2022/04/17 08:40:26;;;;;;;14.13;5.68;;;;;;;;;;5072479;28;20048;-64
2022/04/17 08:43:32;;;;;;;16.13;4.15;;;;;;;;;;5071595;28;20055;-64
2022/04/17 08:46:36;;;;;;;13.93;3.83;;;;;;;;;;5072214;28;20412;-64
2022/04/17 08:49:42;;;;;;;23.75;5.68;;;;;;;;;;5071618;28;20531;-63
2022/04/17 08:52:46;;;;;;;18.45;6.88;;;;;;;;;;5071753;28;20040;-64
2022/04/17 08:55:51;;;;;;;13.52;4.20;;;;;;;;;;5071963;28;20056;-65
2022/04/17 08:58:56;;;;;;;35.38;4.88;;;;;;;;;;5072422;28;20055;-63
2022/04/17 09:02:08;;;;;;;21.92;4.30;;;;;;;;;;5072306;28;20047;-63
2022/04/17 09:05:13;;;;;;;14.45;3.58;;;;;;;;;;5072243;28;20063;-64
2022/04/17 09:08:18;;;;;;;8.20;3.03;;;;;;;;;;5071622;28;20059;-65
2022/04/17 09:11:25;;;;;;;12.55;3.20;;;;;;;;;;5071977;28;20033;-65
2022/04/17 09:14:30;;;;;;;12.05;3.40;;;;;;;;;;5071614;28;20040;-65
2022/04/17 09:17:34;;;;;;;13.57;4.15;;;;;;;;;;5071867;28;20043;-64
2022/04/17 09:20:45;;;;;;;16.00;4.35;;;;;;;;;;5071902;28;20503;-65
2022/04/17 09:23:49;;;;;;;17.55;3.70;;;;;;;;;;5071715;28;20075;-64
2022/04/17 09:27:00;;;;;;;47.35;24.98;;;;;;;;;;5071788;28;20416;-63
2022/04/17 09:30:24;;;;;;;31.38;11.57;;;;;;;;;;5071931;28;20051;-65
2022/04/17 09:33:38;;;;;;;18.15;4.22;;;;;;;;;;5071291;28;20048;-65
2022/04/17 09:36:43;;;;;;;22.63;6.57;;;;;;;;;;5071229;28;20389;-64
2022/04/17 09:39:47;;;;;;;17.98;4.25;;;;;;;;;;5071532;28;20039;-65
2022/04/17 09:43:07;;;;;;;30.05;3.78;;;;;;;;;;5069883;28;20043;-64
2022/04/17 09:46:11;;;;;;;10.57;3.78;;;;;;;;;;5070768;28;20051;-64
2022/04/17 09:49:15;;;;;;;23.00;3.13;;;;;;;;;;5071406;28;20053;-64
2022/04/17 09:52:20;;;;;;;13.27;3.03;;;;;;;;;;5071332;28;20051;-64
2022/04/17 09:55:28;;;;;;;15.50;2.50;;;;;;;;;;5071377;28;20047;-63
2022/04/17 09:58:36;;;;;;;11.27;3.13;;;;;;;;;;5070167;28;20039;-64
2022/04/17 10:01:41;;;;;;;10.43;2.63;;;;;;;;;;5071237;28;20043;-63
2022/04/17 10:04:45;;;;;;;9.75;2.63;;;;;;;;;;5070748;28;20055;-64
2022/04/17 10:07:50;;;;;;;8.68;2.63;;;;;;;;;;5070909;28;20048;-64
2022/04/17 10:10:54;;;;;;;9.38;2.30;;;;;;;;;;5071064;28;20048;-63
2022/04/17 10:13:59;;;;;;;9.82;2.35;;;;;;;;;;5070593;28;20032;-65
2022/04/17 10:17:08;;;;;;;5.18;2.13;;;;;;;;;;5070897;28;20040;-64
2022/04/17 10:20:13;;;;;;;11.40;2.15;;;;;;;;;;5070975;28;20044;-64
2022/04/17 10:23:18;;;;;;;11.80;2.80;;;;;;;;;;5070783;28;20063;-64
2022/04/17 10:26:22;;;;;;;12.82;2.70;;;;;;;;;;5070509;28;20032;-64
2022/04/17 10:29:33;;;;;;;8.55;2.70;;;;;;;;;;5070797;28;20198;-63
2022/04/17 10:32:57;;;;;;;18.08;3.60;;;;;;;;;;5070699;28;20377;-65
2022/04/17 10:36:16;;;;;;;11.38;2.53;;;;;;;;;;5070344;28;20047;-64
2022/04/17 10:39:24;;;;;;;11.80;2.75;;;;;;;;;;5070286;28;20044;-64
2022/04/17 10:42:53;;;;;;;5.15;2.10;;;;;;;;;;5070492;28;20397;-64
2022/04/17 10:46:12;;;;;;;7.20;2.50;;;;;;;;;;5070558;28;20049;-65
2022/04/17 10:49:20;;;;;;;6.45;1.95;;;;;;;;;;5070613;28;20041;-65
2022/04/17 10:52:29;;;;;;;23.90;2.90;;;;;;;;;;5070694;28;20041;-63
2022/04/17 10:55:35;;;;;;;9.98;2.70;;;;;;;;;;5070090;28;20047;-64
2022/04/17 10:58:45;;;;;;;16.30;2.83;;;;;;;;;;5069564;28;20040;-64
2022/04/17 11:01:51;;;;;;;9.52;2.55;;;;;;;;;;5071769;28;20055;-65
2022/04/17 11:04:55;;;;;;;14.00;4.60;;;;;;;;;;5070389;28;20052;-64
2022/04/17 11:08:18;;;;;;;10.10;2.80;;;;;;;;;;5070360;28;20052;-64
2022/04/17 11:11:22;;;;;;;4.85;2.60;;;;;;;;;;5074352;28;20301;-64
2022/04/17 11:14:27;;;;;;;8.40;2.40;;;;;;;;;;5074169;28;20033;-63
2022/04/17 11:17:32;;;;;;;9.30;3.05;;;;;;;;;;5074183;28;20032;-64
2022/04/17 11:20:37;;;;;;;12.85;3.13;;;;;;;;;;5074745;28;20040;-63
2022/04/17 11:23:48;;;;;;;6.75;2.65;;;;;;;;;;5074050;28;20052;-63
2022/04/17 11:26:55;;;;;;;17.08;3.33;;;;;;;;;;5073194;28;20032;-64
2022/04/17 11:30:00;;;;;;;13.00;2.35;;;;;;;;;;5074114;28;20040;-65
2022/04/17 11:33:05;;;;;;;16.50;2.63;;;;;;;;;;5073951;28;20043;-64
2022/04/17 11:36:11;;;;;;;14.73;3.38;;;;;;;;;;5073680;28;20052;-64
2022/04/17 11:39:26;;;;;;;21.65;3.28;;;;;;;;;;5072768;28;20285;-63
2022/04/17 11:42:31;;;;;;;12.30;2.60;;;;;;;;;;5073937;28;20043;-65
2022/04/17 11:45:36;;;;;;;13.20;2.35;;;;;;;;;;5073413;28;20048;-64
2022/04/17 11:48:40;;;;;;;6.47;2.25;;;;;;;;;;5073657;28;20392;-65
2022/04/17 11:51:44;;;;;;;21.08;3.08;;;;;;;;;;5073538;28;20044;-63
2022/04/17 11:54:49;;;;;;;11.00;2.78;;;;;;;;;;5073345;28;20048;-64
2022/04/17 11:57:53;;;;;;;17.75;2.60;;;;;;;;;;5073021;28;20396;-63
2022/04/17 12:00:58;;;;;;;12.27;2.97;;;;;;;;;;5073076;28;20051;-64
2022/04/17 12:04:03;;;;;;;11.38;3.65;;;;;;;;;;5072082;28;20534;-65
2022/04/17 12:07:07;;;;;;;22.98;2.70;;;;;;;;;;5073097;28;20408;-63
2022/04/17 12:10:13;;;;;;;22.60;2.72;;;;;;;;;;5073425;28;20071;-64
2022/04/17 12:13:21;;;;;;;11.88;2.95;;;;;;;;;;5073026;28;20035;-63
2022/04/17 12:16:25;;;;;;;13.05;3.13;;;;;;;;;;5073287;28;20048;-64
2022/04/17 12:19:30;;;;;;;20.15;3.38;;;;;;;;;;5072328;28;20043;-64
2022/04/17 12:22:35;;;;;;;9.05;2.92;;;;;;;;;;5072326;28;20047;-65
2022/04/17 12:25:39;;;;;;;8.73;3.00;;;;;;;;;;5072905;28;20048;-63
2022/04/17 12:28:44;;;;;;;5.50;2.58;;;;;;;;;;5072770;28;20029;-64
2022/04/17 12:31:48;;;;;;;8.63;2.15;;;;;;;;;;5072900;28;20037;-65
2022/04/17 12:35:03;;;;;;;9.70;3.00;;;;;;;;;;5072663;28;20040;-63
2022/04/17 12:38:10;;;;;;;14.02;3.40;;;;;;;;;;5072476;28;20036;-65
2022/04/17 12:41:18;;;;;;;10.82;3.30;;;;;;;;;;5072501;28;20107;-64
2022/04/17 12:44:32;;;;;;;11.63;3.42;;;;;;;;;;5071359;28;20059;-64
2022/04/17 12:47:38;;;;;;;9.45;3.15;;;;;;;;;;5072658;28;20503;-64
2022/04/17 12:50:43;;;;;;;10.05;3.00;;;;;;;;;;5072112;28;20028;-64
2022/04/17 12:53:50;;;;;;;10.02;3.50;;;;;;;;;;5072045;28;20397;-64
2022/04/17 12:57:01;;;;;;;16.25;4.32;;;;;;;;;;5071907;28;20044;-66
2022/04/17 13:00:16;;;;;;;12.40;4.15;;;;;;;;;;5072324;28;20043;-64
2022/04/17 13:03:20;;;;;;;11.98;3.63;;;;;;;;;;5071761;28;20043;-64
2022/04/17 13:06:24;;;;;;;11.52;3.55;;;;;;;;;;5071230;28;20237;-64
2022/04/17 13:09:28;;;;;;;5.07;2.55;;;;;;;;;;5071808;28;20059;-64
2022/04/17 13:12:33;;;;;;;13.57;4.07;;;;;;;;;;5071276;28;20045;-64
2022/04/17 13:15:37;;;;;;;6.72;3.00;;;;;;;;;;5072345;28;20039;-65
2022/04/17 13:18:42;;;;;;;10.43;3.33;;;;;;;;;;5072380;28;20036;-64
2022/04/17 13:21:46;;;;;;;11.90;4.07;;;;;;;;;;5071893;28;20039;-64
2022/04/17 13:24:50;;;;;;;8.00;3.00;;;;;;;;;;5071896;28;20404;-64
2022/04/17 13:27:54;;;;;;;9.75;3.75;;;;;;;;;;5072241;28;20040;-65
2022/04/17 13:30:59;;;;;;;13.20;3.95;;;;;;;;;;5072390;28;20048;-65
2022/04/17 13:34:04;;;;;;;9.27;3.15;;;;;;;;;;5073354;28;20040;-64
2022/04/17 13:40:31;;;;;;;6.35;2.97;;;;;;;;;;5071735;28;20043;-64
2022/04/17 13:43:35;;;;;;;8.52;2.90;;;;;;;;;;5071534;28;20036;-65
2022/04/17 13:46:40;;;;;;;7.05;2.80;;;;;;;;;;5071324;28;20032;-64
2022/04/17 13:49:44;;;;;;;9.07;3.83;;;;;;;;;;5070383;28;20501;-64
2022/04/17 13:52:49;;;;;;;6.32;2.63;;;;;;;;;;5071234;28;20028;-65
2022/04/17 13:55:53;;;;;;;9.40;2.85;;;;;;;;;;5071161;28;20041;-63
2022/04/17 13:58:57;;;;;;;5.10;2.33;;;;;;;;;;5071397;28;20032;-65
2022/04/17 14:02:02;;;;;;;7.90;2.25;;;;;;;;;;5071339;28;20040;-64
2022/04/17 14:05:06;;;;;;;9.90;2.70;;;;;;;;;;5071039;28;20048;-63
2022/04/17 14:08:11;;;;;;;11.07;3.17;;;;;;;;;;5070735;28;20048;-65
2022/04/17 14:11:15;;;;;;;8.98;2.78;;;;;;;;;;5071321;28;20051;-65
2022/04/17 14:14:19;;;;;;;9.32;2.60;;;;;;;;;;5071240;28;20362;-66
2022/04/17 14:17:24;;;;;;;5.07;2.45;;;;;;;;;;5070781;28;20036;-65
2022/04/17 14:20:31;;;;;;;7.65;2.63;;;;;;;;;;5070094;28;20040;-65
2022/04/17 14:23:35;;;;;;;8.63;2.40;;;;;;;;;;5070629;28;20037;-65
2022/04/17 14:26:40;;;;;;;5.90;2.15;;;;;;;;;;5071198;28;20036;-65
2022/04/17 14:29:44;;;;;;;8.52;2.92;;;;;;;;;;5070974;28;20135;-66
2022/04/17 14:32:49;;;;;;;4.90;2.80;;;;;;;;;;5070595;28;20394;-65
2022/04/17 14:35:57;;;;;;;6.40;2.10;;;;;;;;;;5071027;28;20036;-65
2022/04/17 14:39:01;;;;;;;5.07;2.05;;;;;;;;;;5070768;28;20040;-63
2022/04/17 14:42:06;;;;;;;5.95;1.90;;;;;;;;;;5070994;28;20036;-64
2022/04/17 14:45:24;;;;;;;12.57;2.45;;;;;;;;;;5073113;28;20481;-65
2022/04/17 14:48:28;;;;;;;4.50;2.10;;;;;;;;;;5075175;28;20047;-65
2022/04/17 14:51:33;;;;;;;7.97;2.85;;;;;;;;;;5074561;28;20040;-64
2022/04/17 14:54:38;;;;;;;7.68;2.47;;;;;;;;;;5074542;28;20484;-65
2022/04/17 14:57:43;;;;;;;7.85;2.50;;;;;;;;;;5074587;28;20485;-65
2022/04/17 15:00:48;;;;;;;6.28;2.05;;;;;;;;;;5074052;28;20032;-63
2022/04/17 15:03:52;;;;;;;10.63;2.50;;;;;;;;;;5074216;28;20493;-65
2022/04/17 15:06:56;;;;;;;7.45;2.38;;;;;;;;;;5074264;28;20059;-64
2022/04/17 15:10:01;;;;;;;8.00;2.55;;;;;;;;;;5074381;28;20041;-66
2022/04/17 15:13:09;;;;;;;5.88;2.30;;;;;;;;;;5074213;28;20041;-64
2022/04/17 15:16:13;;;;;;;3.88;2.00;;;;;;;;;;5074056;28;20045;-65
2022/04/17 15:19:17;;;;;;;7.72;1.92;;;;;;;;;;5074092;28;20374;-65
2022/04/17 15:22:22;;;;;;;4.93;2.00;;;;;;;;;;5074045;28;20373;-65
2022/04/17 15:25:26;;;;;;;4.13;2.20;;;;;;;;;;5073898;28;20504;-65
2022/04/17 15:28:31;;;;;;;6.70;2.20;;;;;;;;;;5074240;28;20036;-64
2022/04/17 15:31:35;;;;;;;9.27;2.50;;;;;;;;;;5073865;28;20028;-65
2022/04/17 15:34:39;;;;;;;6.95;2.60;;;;;;;;;;5073919;28;20044;-63
2022/04/17 15:37:43;;;;;;;9.43;2.30;;;;;;;;;;5073773;28;20037;-64
2022/04/17 15:40:48;;;;;;;4.53;2.38;;;;;;;;;;5073595;28;20024;-64
2022/04/17 15:50:38;;;;;;;3.78;2.10;;;;;;;;;;5073754;28;20048;-63
2022/04/17 15:53:43;;;;;;;3.75;2.00;;;;;;;;;;5073964;28;20481;-64
2022/04/17 15:56:47;;;;;;;9.77;2.05;;;;;;;;;;5071925;28;20032;-65
2022/04/17 15:59:51;;;;;;;9.25;2.13;;;;;;;;;;5073357;28;20044;-64
2022/04/17 16:02:56;;;;;;;4.95;2.70;;;;;;;;;;5073415;28;20477;-64
2022/04/17 16:06:00;;;;;;;6.93;2.30;;;;;;;;;;5072952;28;20040;-63
2022/04/17 16:09:05;;;;;;;9.80;2.17;;;;;;;;;;5073366;28;20037;-63
2022/04/17 16:12:09;;;;;;;8.93;2.38;;;;;;;;;;5073239;28;20045;-64
2022/04/17 16:15:13;;;;;;;5.53;2.20;;;;;;;;;;5072887;28;20036;-64
2022/04/17 16:18:17;;;;;;;7.70;2.70;;;;;;;;;;5073263;28;20036;-65
2022/04/17 16:21:22;;;;;;;7.68;2.67;;;;;;;;;;5072949;28;20476;-64
2022/04/17 16:24:26;;;;;;;11.60;2.35;;;;;;;;;;5072787;28;20056;-64
2022/04/17 16:27:30;;;;;;;12.88;2.10;;;;;;;;;;5072801;28;20039;-65
2022/04/17 16:30:34;;;;;;;10.80;2.10;;;;;;;;;;5072626;28;20044;-62
2022/04/17 16:33:39;;;;;;;8.70;2.17;;;;;;;;;;5072488;28;20055;-64
2022/04/17 16:36:43;;;;;;;7.35;2.40;;;;;;;;;;5072634;28;20041;-64
2022/04/17 16:39:48;;;;;;;10.52;2.08;;;;;;;;;;5072696;28;20040;-64
2022/04/17 16:42:53;;;;;;;10.32;2.40;;;;;;;;;;5072198;28;20035;-63
2022/04/17 16:45:57;;;;;;;13.38;2.35;;;;;;;;;;5072169;28;20060;-64
2022/04/17 16:49:01;;;;;;;14.38;3.03;;;;;;;;;;5071504;28;20044;-64
2022/04/17 16:52:06;;;;;;;12.80;1.90;;;;;;;;;;5072618;28;20047;-64
2022/04/17 16:55:10;;;;;;;9.98;1.95;;;;;;;;;;5071240;28;20047;-64
2022/04/17 17:01:42;;;;;;;11.75;2.55;;;;;;;;;;5072075;28;20175;-64
2022/04/17 17:04:47;;;;;;;11.60;2.60;;;;;;;;;;5072066;28;20055;-63
2022/04/17 17:07:51;;;;;;;6.57;2.35;;;;;;;;;;5071202;28;20056;-63
2022/04/17 17:10:56;;;;;;;8.15;2.30;;;;;;;;;;5071786;28;20480;-65
2022/04/17 17:14:00;;;;;;;15.27;2.40;;;;;;;;;;5071661;28;20033;-65
2022/04/17 17:17:06;;;;;;;6.05;2.38;;;;;;;;;;5071537;28;20039;-68
2022/04/17 17:20:10;;;;;;;6.43;2.13;;;;;;;;;;5072065;28;20041;-68
2022/04/17 17:23:14;;;;;;;5.95;2.30;;;;;;;;;;5071768;28;20044;-68
2022/04/17 17:26:19;;;;;;;10.15;2.17;;;;;;;;;;5071424;28;20405;-67
2022/04/17 17:29:23;;;;;;;6.10;2.17;;;;;;;;;;5071832;28;20044;-68
2022/04/17 17:32:31;;;;;;;13.23;3.10;;;;;;;;;;5071555;28;20044;-68
2022/04/17 17:35:35;;;;;;;16.25;2.55;;;;;;;;;;5071756;28;20039;-67
2022/04/17 17:38:39;;;;;;;8.98;3.17;;;;;;;;;;5071222;28;20048;-68
2022/04/17 17:41:44;;;;;;;7.32;2.45;;;;;;;;;;5071276;28;20033;-68
2022/04/17 17:44:48;;;;;;;10.73;2.47;;;;;;;;;;5071301;28;20516;-68
2022/04/17 17:47:52;;;;;;;4.78;2.38;;;;;;;;;;5071290;28;20063;-68
2022/04/17 17:50:57;;;;;;;8.55;2.83;;;;;;;;;;5071291;28;20032;-68
2022/04/17 17:54:01;;;;;;;10.98;3.13;;;;;;;;;;5071409;28;20040;-68
2022/04/17 17:57:06;;;;;;;8.90;3.30;;;;;;;;;;5071262;28;20048;-68
2022/04/17 18:00:10;;;;;;;8.35;2.85;;;;;;;;;;5071035;28;20044;-68
2022/04/17 18:03:15;;;;;;;8.90;2.78;;;;;;;;;;5070228;28;20358;-68
2022/04/17 18:06:19;;;;;;;11.52;3.65;;;;;;;;;;5070464;28;20048;-68
2022/04/17 18:16:10;;;;;;;10.43;2.97;;;;;;;;;;5070980;28;20032;-68
2022/04/17 18:19:15;;;;;;;7.20;1.88;;;;;;;;;;5069907;28;20045;-68
2022/04/17 18:25:41;;;;;;;6.68;2.83;;;;;;;;;;5070418;28;20406;-68
2022/04/17 18:28:46;;;;;;;7.80;2.60;;;;;;;;;;5070990;28;20040;-68
2022/04/17 18:31:50;;;;;;;11.40;2.53;;;;;;;;;;5070725;28;20040;-69
2022/04/17 18:34:55;;;;;;;8.95;3.95;;;;;;;;;;5070969;28;20487;-68
2022/04/17 18:38:00;;;;;;;15.70;4.07;;;;;;;;;;5070817;28;20036;-68
2022/04/17 18:41:04;;;;;;;11.57;3.08;;;;;;;;;;5070713;28;20032;-68
2022/04/17 18:44:08;;;;;;;14.32;2.55;;;;;;;;;;5069811;28;20047;-68
2022/04/17 18:47:13;;;;;;;8.73;2.13;;;;;;;;;;5070926;28;20043;-68
2022/04/17 18:50:17;;;;;;;13.70;2.47;;;;;;;;;;5070517;28;20041;-68
2022/04/17 18:53:21;;;;;;;9.80;2.85;;;;;;;;;;5070592;28;20047;-68
2022/04/17 18:56:26;;;;;;;4.68;1.88;;;;;;;;;;5069800;28;20365;-68
2022/04/17 18:59:30;;;;;;;10.02;2.38;;;;;;;;;;5070740;28;20044;-68
2022/04/17 19:02:34;;;;;;;8.35;2.63;;;;;;;;;;5070135;28;20396;-68